HOURLY OBS INDEX

013

Northeast interior

BALGO HILLS ASA

Site: 013045
Alt: 421.1m
215km S of HALLS CREEK


  Time     Wind        Temp  DP   Baro     Rain since   Rain past  Vis(m), Cloud(base in m), Weather
  local        km/h                         9am  last   hr   10m    
Wed 13:00  ------/--- --------  1015.2   ----  ----  ----  ----   ----- 
Wed 13:30  ------/--- --------  1014.8   ----  ----  ----  ----   ----- 
Wed 14:00  ------/--- --------  1014.4   ----  ----  ----  ----   ----- 
Wed 14:30  ------/--- --------  1014.2   ----  ----  ----  ----   ----- 
Wed 15:00  ------/--- --------  1014.1   ----  ----  ----  ----   ----- 
Wed 15:30  ------/--- --------  1014.3   ----  ----  ----  ----   ----- 
Wed 16:00  ------/--- --------  1014.5   ----  ----  ----  ----   ----- 
Wed 16:30  ------/--- --------  1014.6   ----  ----  ----  ----   ----- 
Wed 17:00  ------/--- --------  1014.8   ----  ----  ----  ----   ----- 
Wed 17:30  ------/--- --------  1015.1   ----  ----  ----  ----   ----- 
Wed 18:00  ------/--- --------  1015.5   ----  ----  ----  ----   ----- 
Wed 18:30  ------/--- --------  1016.1   ----  ----  ----  ----   ----- 

GILES METEOROLOGICAL OFFICE

Site: 013017
Alt: 598.0m
709km NE of LAVERTON


  Time     Wind        Temp  DP   Baro     Rain since   Rain past  Vis(m), Cloud(base in m), Weather
  local        km/h                         9am  last   hr   10m    
Wed 13:00   SE 26/ 37  21.1-20.0  1021.1    0.0   0.0   0.0   0.0   10000 
Wed 13:30   SE 26/ 37  22.2-18.1  1020.7    0.0   0.0   0.0   0.0   10000 
Wed 14:00  SSE 26/ 43  21.5-21.5  1020.6    0.0   0.0   0.0   0.0   10000 
Wed 14:16   SE 28/ 48  21.6-24.0  1020.4    0.0   0.0  ----   0.0   10000 
Wed 14:30   SE 24/ 37  22.3-25.1  1020.2    0.0   0.0   0.0   0.0   10000 
Wed 15:00   SE 24/ 39  22.5-30.2  1020.2    0.0   0.0   0.0   0.0   10000 
Wed 15:30  ESE 24/ 39  22.0-26.1  1020.0    0.0   0.0   0.0   0.0   10000 
Wed 16:00   SE 24/ 35  21.7-23.1  1020.0    0.0   0.0   0.0   0.0   10000 
Wed 16:30   SE 20/ 30  21.3-21.4  1020.2    0.0   0.0   0.0   0.0   10000 
Wed 17:00   SE 24/ 33  20.6-20.6  1020.6    0.0   0.0   0.0   0.0   10000 
Wed 17:00   SE 24/ 33  20.6-20.6  1020.6    0.0   0.0  ----   0.0   10000 
Wed 17:30  SSE 17/ 22  19.2-17.8  1021.0    0.0   0.0   0.0   0.0   10000 
Wed 18:00  SSE 15/ 19  17.8-16.3  1021.4    0.0   0.0   0.0   0.0   10000 
Wed 18:30  SSE 13/ 17  16.0-14.8  1021.9    0.0   0.0   0.0   0.0   10000 

TELFER AERO

Site: 013030
Alt: 291.9m
315km NE of NEWMAN


  Time     Wind        Temp  DP   Baro     Rain since   Rain past  Vis(m), Cloud(base in m), Weather
  local        km/h                         9am  last   hr   10m    
Wed 13:00  ESE 35/ 50  25.1 -0.1  1017.3    0.0   0.0   0.0   0.0   10000|SC3600 
Wed 13:30   SE 30/ 43  25.8 -0.3  1016.8    0.0   0.0   0.0   0.0   10000|SC3600 
Wed 13:34   SE 32/ 58  26.2  0.0  1016.6    0.0   0.0  ----   0.0   10000|SC3600 
Wed 14:00  ESE 30/ 43  26.1  0.0  1016.1    0.0   0.0   0.0   0.0   10000 
Wed 14:30  ESE 24/ 35  25.3 -0.7  1016.2    0.0   0.0   0.0   0.0   10000|BR3600 
Wed 15:00  ESE 26/ 35  25.1 -0.9  1016.2    0.0   0.0   0.0   0.0   10000|SC1740 SC2550 SC3000 
Wed 15:30  ESE 22/ 33  25.8 -2.8  1016.0    0.0   0.0   0.0   0.0   10000 
Wed 16:00   SE 26/ 33  25.6 -3.8  1016.4    0.0   0.0   0.0   0.0   10000 
Wed 16:30   SE 22/ 30  25.6 -4.8  1016.5    0.0   0.0   0.0   0.0   10000|BR3600 
Wed 17:00   SE 22/ 30  25.3 -5.1  1016.5    0.0   0.0   0.0   0.0   10000 
Wed 17:30   SE 15/ 22  25.1 -4.2  1017.0    0.0   0.0   0.0   0.0   10000|BR3600 
Wed 18:00   SE 15/ 19  24.3 -4.9  1017.4    0.0   0.0   0.0   0.0   10000|OC3600 
Wed 18:30  ESE  9/ 13  23.4 -3.8  1017.5    0.0   0.0   0.0   0.0   10000 

WARBURTON AIRFIELD

Site: 013011
Alt: 459.0m
497km NE of LAVERTON


  Time     Wind        Temp  DP   Baro     Rain since   Rain past  Vis(m), Cloud(base in m), Weather
  local        km/h                         9am  last   hr   10m    
Wed 13:00  SSE 24/ 33  21.3 -2.5  1022.2    0.0   0.0   0.0   0.0   ----- 
Wed 13:30   SE 22/ 28  22.2 -1.8  1021.9    0.0   0.0   0.0   0.0   ----- 
Wed 14:00   SE 24/ 35  22.2 -2.5  1021.5    0.0   0.0   0.0   0.0   ----- 
Wed 14:30  ESE 24/ 39  22.8 -2.0  1021.0    0.0   0.0   0.0   0.0   ----- 
Wed 15:00   SE 26/ 35  22.5 -3.0  1020.9    0.0   0.0   0.0   0.0   ----- 
Wed 15:30   SE 22/ 37  22.7 -4.4  1020.8    0.0   0.0   0.0   0.0   ----- 
Wed 16:00   SE 22/ 28  22.3 -3.1  1020.9    0.0   0.0   0.0   0.0   ----- 
Wed 16:30  ESE 22/ 30  22.0 -2.7  1021.0    0.0   0.0   0.0   0.0   ----- 
Wed 17:00  ESE 22/ 30  21.5 -2.4  1021.1    0.0   0.0   0.0   0.0   ----- 
Wed 17:30  ESE 19/ 26  20.6 -1.2  1021.5    0.0   0.0   0.0   0.0   ----- 
Wed 18:00   SE 19/ 28  20.2 -1.0  1022.0    0.0   0.0   0.0   0.0   ----- 
Wed 18:30   SE 13/ 17  18.9 -1.0  1022.3    0.0   0.0   0.0   0.0   -----